createdAt,value
2022-12-04T00:01:28.030Z,41.15
2022-12-04T00:03:54.430Z,40.67
2022-12-04T00:06:20.902Z,41.14
2022-12-04T00:08:47.283Z,40.69
2022-12-04T00:11:13.688Z,40.91
2022-12-04T00:13:40.081Z,41.62
2022-12-04T00:16:06.498Z,41.96
2022-12-04T00:18:32.951Z,41.52
2022-12-04T00:20:59.340Z,41.51
2022-12-04T00:23:25.755Z,41.78
2022-12-04T00:25:52.159Z,41.75
2022-12-04T00:28:18.653Z,41.67
2022-12-04T00:30:45.093Z,42.14
2022-12-04T00:33:11.473Z,42.08
2022-12-04T00:35:37.869Z,42.46
2022-12-04T00:38:04.229Z,43.27
2022-12-04T00:40:30.647Z,42.74
2022-12-04T00:42:57.064Z,43.28
2022-12-04T00:45:23.544Z,42.64
2022-12-04T00:47:50.102Z,43.43
2022-12-04T00:50:16.495Z,43.23
2022-12-04T00:52:42.911Z,43.51
2022-12-04T00:55:09.310Z,43.31
2022-12-04T00:57:35.712Z,43.86
2022-12-04T01:00:02.094Z,43.97
2022-12-04T01:02:28.457Z,44.15
2022-12-04T01:04:54.844Z,43.98
2022-12-04T01:07:21.298Z,43.80
2022-12-04T01:09:47.700Z,44.00
2022-12-04T01:12:20.380Z,43.97
2022-12-04T01:14:47.217Z,44.01
2022-12-04T01:17:13.619Z,43.81
2022-12-04T01:19:40.049Z,44.34
2022-12-04T01:22:06.420Z,44.37
2022-12-04T01:24:32.885Z,44.49
2022-12-04T01:26:59.287Z,44.28
2022-12-04T01:29:25.658Z,44.58
2022-12-04T01:31:52.150Z,43.98
2022-12-04T01:34:18.543Z,44.27
2022-12-04T01:36:45.110Z,44.11
2022-12-04T01:39:11.478Z,44.19
2022-12-04T01:41:37.951Z,44.88
2022-12-04T01:44:04.355Z,44.88
2022-12-04T01:46:30.838Z,44.87
2022-12-04T01:48:58.161Z,44.94
2022-12-04T01:51:24.517Z,45.27
2022-12-04T01:53:50.895Z,44.92
2022-12-04T01:56:17.337Z,44.75
2022-12-04T01:58:43.701Z,45.41
2022-12-04T02:01:10.199Z,45.83
2022-12-04T02:03:36.638Z,45.87
2022-12-04T02:06:03.021Z,45.98
2022-12-04T02:08:29.442Z,45.92
2022-12-04T02:10:55.941Z,46.52
2022-12-04T02:13:22.342Z,46.55
2022-12-04T02:15:48.759Z,46.88
2022-12-04T02:18:15.201Z,46.48
2022-12-04T02:20:41.595Z,47.22
2022-12-04T02:23:08.016Z,47.42
2022-12-04T02:25:34.386Z,46.93
2022-12-04T02:28:00.807Z,46.93
2022-12-04T02:30:27.250Z,47.30
2022-12-04T02:32:53.763Z,48.46
2022-12-04T02:35:20.180Z,47.93
2022-12-04T02:37:46.571Z,47.58
2022-12-04T02:40:12.987Z,47.83
2022-12-04T02:42:39.528Z,48.02
2022-12-04T02:45:06.036Z,48.06
2022-12-04T02:47:32.419Z,47.67
2022-12-04T02:49:59.042Z,47.95
2022-12-04T02:52:25.531Z,47.96
2022-12-04T02:54:51.938Z,48.11
2022-12-04T02:57:18.527Z,48.00
2022-12-04T02:59:44.934Z,48.06
2022-12-04T03:02:11.549Z,47.94
2022-12-04T03:04:37.987Z,48.23
2022-12-04T03:07:04.388Z,47.91
2022-12-04T03:09:30.977Z,48.06
2022-12-04T03:11:57.376Z,48.09
2022-12-04T03:14:23.810Z,48.17
2022-12-04T03:16:50.277Z,47.63
2022-12-04T03:19:16.693Z,48.00
2022-12-04T03:21:43.126Z,47.81
2022-12-04T03:24:09.528Z,48.19
2022-12-04T03:26:35.947Z,48.43
2022-12-04T03:29:02.353Z,48.78
2022-12-04T03:31:28.753Z,48.55
2022-12-04T03:33:55.147Z,48.39
2022-12-04T03:36:21.535Z,48.78
2022-12-04T03:38:47.961Z,48.92
2022-12-04T03:41:14.315Z,49.60
2022-12-04T03:43:40.735Z,48.95
2022-12-04T03:46:07.200Z,49.06
2022-12-04T03:48:33.620Z,49.33
2022-12-04T03:50:59.999Z,49.35
2022-12-04T03:53:26.388Z,48.89
2022-12-04T03:55:52.794Z,49.02
2022-12-04T03:58:19.163Z,49.52
2022-12-04T04:00:45.549Z,49.75
2022-12-04T04:03:11.953Z,50.28
2022-12-04T04:05:38.396Z,50.08
2022-12-04T04:08:04.901Z,49.75
2022-12-04T04:10:31.357Z,49.67
2022-12-04T04:12:57.762Z,49.79
2022-12-04T04:15:25.645Z,49.76
2022-12-04T04:17:52.003Z,50.19
2022-12-04T04:20:18.453Z,50.32
2022-12-04T04:22:44.856Z,49.88
2022-12-04T04:25:11.246Z,49.56
2022-12-04T04:27:37.634Z,49.78
2022-12-04T04:30:04.011Z,50.01
2022-12-04T04:32:30.409Z,49.83
2022-12-04T04:34:56.788Z,50.09
2022-12-04T04:37:23.173Z,50.04
2022-12-04T04:39:49.599Z,49.89
2022-12-04T04:42:16.167Z,49.70
2022-12-04T04:44:42.580Z,50.16
2022-12-04T04:47:08.977Z,49.60
2022-12-04T04:49:35.397Z,49.93
2022-12-04T04:52:01.812Z,49.94
2022-12-04T04:54:28.281Z,49.70
2022-12-04T04:56:54.678Z,49.83
2022-12-04T04:59:21.029Z,49.46
2022-12-04T05:01:47.515Z,49.21
2022-12-04T05:04:14.005Z,49.85
2022-12-04T05:06:40.496Z,49.63
2022-12-04T05:09:07.073Z,49.59
2022-12-04T05:11:33.473Z,49.18
2022-12-04T05:13:59.822Z,49.59
2022-12-04T05:16:26.259Z,49.28
2022-12-04T05:18:52.805Z,49.46
2022-12-04T05:21:19.229Z,49.16
2022-12-04T05:23:45.660Z,49.44
2022-12-04T05:26:12.048Z,49.58
2022-12-04T05:28:38.497Z,49.75
2022-12-04T05:31:04.949Z,49.59
2022-12-04T05:33:31.387Z,49.71
2022-12-04T05:35:57.781Z,49.53
2022-12-04T05:38:24.258Z,49.81
2022-12-04T05:40:50.619Z,49.50
2022-12-04T05:43:17.016Z,49.56
2022-12-04T05:45:43.509Z,49.64
2022-12-04T05:48:09.955Z,49.50
2022-12-04T05:50:36.357Z,49.73
2022-12-04T05:53:02.772Z,49.58
2022-12-04T05:55:29.277Z,49.53
2022-12-04T05:57:55.713Z,49.55
2022-12-04T06:00:22.182Z,49.41
2022-12-04T06:02:48.656Z,49.49
2022-12-04T06:05:15.026Z,49.52
2022-12-04T06:07:41.504Z,49.37
2022-12-04T06:10:08.122Z,49.67
2022-12-04T06:12:34.513Z,49.33
2022-12-04T06:15:00.946Z,49.42
2022-12-04T06:17:27.457Z,49.36
2022-12-04T06:19:54.365Z,49.55
2022-12-04T06:22:20.938Z,49.60
2022-12-04T06:24:47.350Z,49.60
2022-12-04T06:27:29.286Z,49.28
2022-12-04T06:29:56.269Z,49.49
2022-12-04T06:32:22.866Z,49.79
2022-12-04T06:34:49.262Z,49.65
2022-12-04T06:37:15.715Z,49.32
2022-12-04T06:39:42.209Z,49.19
2022-12-04T06:42:08.625Z,49.12
2022-12-04T06:44:35.056Z,49.41
2022-12-04T06:47:01.495Z,49.07
2022-12-04T06:49:27.906Z,49.22
2022-12-04T06:51:54.346Z,49.50
2022-12-04T06:54:20.723Z,49.65
2022-12-04T06:56:47.207Z,49.48
2022-12-04T06:59:13.708Z,49.49
2022-12-04T07:01:40.156Z,49.71
2022-12-04T07:04:06.573Z,49.53
2022-12-04T07:06:33.019Z,48.01
2022-12-04T07:08:59.441Z,47.87
2022-12-04T07:11:25.883Z,47.78
2022-12-04T07:13:52.246Z,47.38
2022-12-04T07:16:18.706Z,47.66
2022-12-04T07:18:45.114Z,49.14
2022-12-04T07:21:11.516Z,51.64
2022-12-04T07:23:37.898Z,51.72
2022-12-04T07:26:04.336Z,51.99
2022-12-04T07:28:31.889Z,51.32
2022-12-04T07:30:58.405Z,51.39
2022-12-04T07:33:24.843Z,50.83
2022-12-04T07:35:51.347Z,51.54
2022-12-04T07:38:17.752Z,50.77
2022-12-04T07:40:44.225Z,50.54
2022-12-04T07:43:10.660Z,49.87
2022-12-04T07:45:37.541Z,50.18
2022-12-04T07:48:03.961Z,49.98
2022-12-04T07:50:30.424Z,49.68
2022-12-04T07:52:56.821Z,49.39
2022-12-04T07:55:23.523Z,49.33
2022-12-04T07:57:49.979Z,49.01
2022-12-04T08:00:16.378Z,48.55
2022-12-04T08:02:42.757Z,48.50
2022-12-04T08:05:09.139Z,48.61
2022-12-04T08:07:35.572Z,47.99
2022-12-04T08:10:02.001Z,48.14
2022-12-04T08:12:28.422Z,47.96
2022-12-04T08:14:54.796Z,48.14
2022-12-04T08:17:21.523Z,47.27
2022-12-04T08:19:47.952Z,47.67
2022-12-04T08:22:14.405Z,47.59
2022-12-04T08:24:40.832Z,46.96
2022-12-04T08:27:07.217Z,46.88
2022-12-04T08:29:33.637Z,47.09
2022-12-04T08:32:00.070Z,47.07
2022-12-04T08:34:26.470Z,46.87
2022-12-04T08:36:52.846Z,46.66
2022-12-04T08:39:19.332Z,46.19
2022-12-04T08:41:45.742Z,46.18
2022-12-04T08:44:12.124Z,46.07
2022-12-04T08:46:38.685Z,46.16
2022-12-04T08:49:05.142Z,46.38
2022-12-04T08:51:31.536Z,46.04
2022-12-04T08:53:57.961Z,45.87
2022-12-04T08:56:24.458Z,46.05
2022-12-04T08:58:50.855Z,45.60
2022-12-04T09:01:17.260Z,45.64
2022-12-04T09:03:43.706Z,45.65
2022-12-04T09:06:10.116Z,44.97
2022-12-04T09:08:36.461Z,45.45
2022-12-04T09:11:02.851Z,45.65
2022-12-04T09:13:29.265Z,45.54
2022-12-04T09:15:55.689Z,45.13
2022-12-04T09:18:22.125Z,44.79
2022-12-04T09:20:48.525Z,44.65
2022-12-04T09:23:14.887Z,44.84
2022-12-04T09:25:41.293Z,44.41
2022-12-04T09:28:07.725Z,44.49
2022-12-04T09:30:34.151Z,44.09
2022-12-04T09:33:00.537Z,43.81
2022-12-04T09:35:26.934Z,44.39
2022-12-04T09:37:53.313Z,44.06
2022-12-04T09:40:19.668Z,43.99
2022-12-04T09:42:46.032Z,43.93
2022-12-04T09:45:12.407Z,44.01
2022-12-04T09:47:38.895Z,44.25
2022-12-04T09:50:05.322Z,44.19
2022-12-04T09:52:31.754Z,44.00
2022-12-04T09:54:58.189Z,43.92
2022-12-04T09:57:24.568Z,44.05
2022-12-04T09:59:50.937Z,43.61
2022-12-04T10:02:17.368Z,43.65
2022-12-04T10:04:43.998Z,43.52
2022-12-04T10:07:10.370Z,43.76
2022-12-04T10:09:36.759Z,43.13
2022-12-04T10:12:03.156Z,43.18
2022-12-04T10:14:29.575Z,43.30
2022-12-04T10:16:56.033Z,42.90
2022-12-04T10:19:22.448Z,43.00
2022-12-04T10:21:48.859Z,42.97
2022-12-04T10:24:15.252Z,42.87
2022-12-04T10:26:41.662Z,43.17
2022-12-04T10:29:08.055Z,42.99
2022-12-04T10:31:34.604Z,43.16
2022-12-04T10:34:01.019Z,43.02
2022-12-04T10:36:27.458Z,42.73
2022-12-04T10:38:53.879Z,43.09
2022-12-04T10:41:20.298Z,42.62
2022-12-04T10:43:46.712Z,43.00
2022-12-04T10:46:13.159Z,42.35
2022-12-04T10:48:39.553Z,43.08
2022-12-04T10:51:05.925Z,42.68
2022-12-04T10:53:32.346Z,42.59
2022-12-04T10:55:58.765Z,42.50
2022-12-04T10:58:25.252Z,42.57
2022-12-04T11:00:51.630Z,42.64
2022-12-04T11:03:18.049Z,42.31
2022-12-04T11:05:44.503Z,42.50
2022-12-04T11:08:12.540Z,42.21
2022-12-04T11:10:41.975Z,42.17
2022-12-04T11:13:08.400Z,41.99
2022-12-04T11:15:34.833Z,42.62
2022-12-04T11:18:01.230Z,41.99
2022-12-04T11:20:27.695Z,41.92
2022-12-04T11:22:54.114Z,42.00
2022-12-04T11:25:20.502Z,42.02
2022-12-04T11:27:47.046Z,41.96
2022-12-04T11:30:13.533Z,42.11
2022-12-04T11:32:39.928Z,41.75
2022-12-04T11:35:06.371Z,41.75
2022-12-04T11:37:32.752Z,41.59
2022-12-04T11:39:59.312Z,41.32
2022-12-04T11:42:25.827Z,41.54
2022-12-04T11:44:52.202Z,41.92
2022-12-04T11:47:18.626Z,41.19
2022-12-04T11:49:45.049Z,41.27
2022-12-04T11:52:11.472Z,41.75
2022-12-04T11:54:37.837Z,41.73
2022-12-04T11:57:04.213Z,41.55
2022-12-04T11:59:30.583Z,40.77
2022-12-04T12:01:58.720Z,40.92
2022-12-04T12:04:25.320Z,41.12
2022-12-04T12:06:51.701Z,41.29
2022-12-04T12:09:18.101Z,41.23
2022-12-04T12:11:44.521Z,41.11
2022-12-04T12:14:11.020Z,40.81
2022-12-04T12:16:37.459Z,40.93
2022-12-04T12:19:03.894Z,41.09
2022-12-04T12:21:30.327Z,41.04
2022-12-04T12:23:56.708Z,40.92
2022-12-04T12:26:23.159Z,41.13
2022-12-04T12:28:49.597Z,41.31
2022-12-04T12:31:16.109Z,40.90
2022-12-04T12:33:42.576Z,41.24
2022-12-04T12:36:09.009Z,40.54
2022-12-04T12:38:35.405Z,40.50
2022-12-04T12:41:01.812Z,41.27
2022-12-04T12:43:28.207Z,41.26
2022-12-04T12:45:54.692Z,41.19
2022-12-04T12:48:21.127Z,40.97
2022-12-04T12:50:54.720Z,40.81
2022-12-04T12:53:29.756Z,41.05
2022-12-04T12:55:56.202Z,40.93
2022-12-04T12:58:22.624Z,40.86
2022-12-04T13:00:49.181Z,40.87
2022-12-04T13:03:15.654Z,41.17
2022-12-04T13:05:42.007Z,40.96
2022-12-04T13:08:08.423Z,41.10
2022-12-04T13:10:34.958Z,41.04
2022-12-04T13:13:01.443Z,40.94
2022-12-04T13:15:27.979Z,41.15
2022-12-04T13:17:54.387Z,40.73
2022-12-04T13:20:20.759Z,40.72
2022-12-04T13:22:47.135Z,40.99
2022-12-04T13:25:13.613Z,40.96
2022-12-04T13:27:40.011Z,41.03
2022-12-04T13:30:06.434Z,40.73
2022-12-04T13:32:32.777Z,40.47
2022-12-04T13:34:59.179Z,40.75
2022-12-04T13:37:25.580Z,40.88
2022-12-04T13:39:51.970Z,41.00
2022-12-04T13:42:18.314Z,40.67
2022-12-04T13:44:44.700Z,41.00
2022-12-04T13:47:11.050Z,40.45
2022-12-04T13:49:37.483Z,40.81
2022-12-04T13:52:03.890Z,40.81
2022-12-04T13:54:30.258Z,40.67
2022-12-04T13:56:56.652Z,40.62
2022-12-04T13:59:22.996Z,40.75
2022-12-04T14:01:49.460Z,40.50
2022-12-04T14:04:15.892Z,40.66
2022-12-04T14:06:42.262Z,40.67
2022-12-04T14:09:08.661Z,40.37
2022-12-04T14:11:35.097Z,40.33
2022-12-04T14:14:06.588Z,40.68
2022-12-04T14:16:34.465Z,40.56
2022-12-04T14:19:00.853Z,40.77
2022-12-04T14:21:27.285Z,40.32
2022-12-04T14:23:53.626Z,40.76
2022-12-04T14:26:20.037Z,40.43
2022-12-04T14:28:46.458Z,40.38
2022-12-04T14:31:13.013Z,40.12
2022-12-04T14:33:39.419Z,40.18
2022-12-04T14:36:05.756Z,40.39
2022-12-04T14:38:32.162Z,40.51
2022-12-04T14:40:58.544Z,40.78
2022-12-04T14:43:24.921Z,40.12
2022-12-04T14:45:51.432Z,40.18
2022-12-04T14:48:17.818Z,40.41
2022-12-04T14:50:44.463Z,40.31
2022-12-04T14:53:10.901Z,40.41
2022-12-04T14:55:37.311Z,40.49
2022-12-04T14:58:03.784Z,40.29
2022-12-04T15:00:30.215Z,40.08
2022-12-04T15:02:56.627Z,40.75
2022-12-04T15:05:23.006Z,40.56
2022-12-04T15:07:49.570Z,40.36
2022-12-04T15:10:15.985Z,40.47
2022-12-04T15:12:42.350Z,40.28
2022-12-04T15:15:08.772Z,40.07
2022-12-04T15:17:35.222Z,40.55
2022-12-04T15:20:01.742Z,40.47
2022-12-04T15:22:28.109Z,40.32
2022-12-04T15:24:54.960Z,40.33
2022-12-04T15:27:21.693Z,40.63
2022-12-04T15:29:48.115Z,40.51
2022-12-04T15:32:14.617Z,40.71
2022-12-04T15:34:40.991Z,40.71
2022-12-04T15:37:07.364Z,40.60
2022-12-04T15:39:34.164Z,39.95
2022-12-04T15:42:00.557Z,39.94
2022-12-04T15:44:26.923Z,39.99
2022-12-04T15:46:53.377Z,40.21
2022-12-04T15:49:19.849Z,40.53
2022-12-04T15:51:46.397Z,39.97
2022-12-04T15:54:12.822Z,40.22
2022-12-04T15:56:39.218Z,40.22
2022-12-04T15:59:05.584Z,40.34
2022-12-04T16:01:32.026Z,40.43
2022-12-04T16:03:58.481Z,39.87
2022-12-04T16:06:24.877Z,40.06
2022-12-04T16:08:51.215Z,40.27
2022-12-04T16:11:17.572Z,39.87
2022-12-04T16:13:43.964Z,40.00
2022-12-04T16:16:10.390Z,40.48
2022-12-04T16:18:36.804Z,40.28
2022-12-04T16:21:03.340Z,40.00
2022-12-04T16:23:29.792Z,40.15
2022-12-04T16:25:56.182Z,40.55
2022-12-04T16:28:22.663Z,40.67
2022-12-04T16:30:49.155Z,40.41
2022-12-04T16:33:15.788Z,40.25
2022-12-04T16:35:42.264Z,40.00
2022-12-04T16:38:08.677Z,40.65
2022-12-04T16:40:35.174Z,40.00
2022-12-04T16:43:01.646Z,40.01
2022-12-04T16:45:28.158Z,40.52
2022-12-04T16:47:54.684Z,39.79
2022-12-04T16:50:21.100Z,40.58
2022-12-04T16:52:47.521Z,40.29
2022-12-04T16:55:14.131Z,39.87
2022-12-04T16:57:40.563Z,40.21
2022-12-04T17:00:06.991Z,40.29
2022-12-04T17:02:33.401Z,40.32
2022-12-04T17:05:00.155Z,40.67
2022-12-04T17:07:26.799Z,40.38
2022-12-04T17:09:53.169Z,40.13
2022-12-04T17:12:19.580Z,40.35
2022-12-04T17:14:45.992Z,40.28
2022-12-04T17:17:12.377Z,40.53
2022-12-04T17:19:38.808Z,40.44
2022-12-04T17:22:05.313Z,40.06
2022-12-04T17:24:31.740Z,40.01
2022-12-04T17:26:58.164Z,40.35
2022-12-04T17:29:24.676Z,39.96
2022-12-04T17:31:51.107Z,40.54
2022-12-04T17:34:17.581Z,39.83
2022-12-04T17:36:43.996Z,39.71
2022-12-04T17:39:10.428Z,39.85
2022-12-04T17:41:36.797Z,40.03
2022-12-04T17:44:03.249Z,40.05
2022-12-04T17:46:29.699Z,40.27
2022-12-04T17:48:56.078Z,40.49
2022-12-04T17:51:22.561Z,40.04
2022-12-04T17:53:48.995Z,40.38
2022-12-04T17:56:15.361Z,40.05
2022-12-04T17:58:41.794Z,40.41
2022-12-04T18:01:08.199Z,39.84
2022-12-04T18:03:34.665Z,39.70
2022-12-04T18:06:01.234Z,39.80
2022-12-04T18:08:27.628Z,40.12
2022-12-04T18:10:54.036Z,39.83
2022-12-04T18:13:20.538Z,40.13
2022-12-04T18:15:46.945Z,40.18
2022-12-04T18:18:13.348Z,40.13
2022-12-04T18:20:39.823Z,40.20
2022-12-04T18:23:06.233Z,39.79
2022-12-04T18:25:32.759Z,40.04
2022-12-04T18:27:59.186Z,39.80
2022-12-04T18:30:25.592Z,39.53
2022-12-04T18:32:51.975Z,39.62
2022-12-04T18:35:18.514Z,40.10
2022-12-04T18:37:44.862Z,40.04
2022-12-04T18:40:11.336Z,40.21
2022-12-04T18:42:37.832Z,40.36
2022-12-04T18:45:04.221Z,40.23
2022-12-04T18:47:30.641Z,39.59
2022-12-04T18:49:57.354Z,39.83
2022-12-04T18:52:24.015Z,40.18
2022-12-04T18:54:50.425Z,40.20
2022-12-04T18:57:16.941Z,40.15
2022-12-04T18:59:43.313Z,40.28
2022-12-04T19:02:09.719Z,40.20
2022-12-04T19:04:36.165Z,39.86
2022-12-04T19:07:02.532Z,39.81
2022-12-04T19:10:02.489Z,39.99
2022-12-04T19:12:15.385Z,40.19
2022-12-04T19:14:41.815Z,40.07
2022-12-04T19:17:08.277Z,39.52
2022-12-04T19:19:34.691Z,40.28
2022-12-04T19:22:01.210Z,40.38
2022-12-04T19:24:27.642Z,40.08
2022-12-04T19:26:54.111Z,40.23
2022-12-04T19:29:20.570Z,40.13
2022-12-04T19:31:47.073Z,40.05
2022-12-04T19:34:13.573Z,40.33
2022-12-04T19:36:40.002Z,40.06
2022-12-04T19:39:06.403Z,39.95
2022-12-04T19:41:32.751Z,40.46
2022-12-04T19:43:59.137Z,39.94
2022-12-04T19:46:25.651Z,40.39
2022-12-04T19:48:52.159Z,39.94
2022-12-04T19:51:18.578Z,40.09
2022-12-04T19:53:45.156Z,40.53
2022-12-04T19:56:11.648Z,40.48
2022-12-04T19:58:38.035Z,40.41
2022-12-04T20:01:04.490Z,40.29
2022-12-04T20:03:31.096Z,40.28
2022-12-04T20:05:57.684Z,40.48
2022-12-04T20:08:24.113Z,40.24
2022-12-04T20:10:50.489Z,40.40
2022-12-04T20:13:16.959Z,40.81
2022-12-04T20:15:43.467Z,40.54
2022-12-04T20:18:09.844Z,40.91
2022-12-04T20:20:36.209Z,41.45
2022-12-04T20:23:02.615Z,41.23
2022-12-04T20:25:29.158Z,41.30
2022-12-04T20:27:55.537Z,41.47
2022-12-04T20:30:22.039Z,41.83
2022-12-04T20:32:48.538Z,41.83
2022-12-04T20:35:14.891Z,41.67
2022-12-04T20:37:41.258Z,42.10
2022-12-04T20:40:07.702Z,41.89
2022-12-04T20:42:34.107Z,42.11
2022-12-04T20:45:00.496Z,42.40
2022-12-04T20:47:26.890Z,41.96
2022-12-04T20:49:53.300Z,42.12
2022-12-04T20:52:20.041Z,42.35
2022-12-04T20:54:46.490Z,42.98
2022-12-04T20:57:12.941Z,43.01
2022-12-04T20:59:39.339Z,42.71
2022-12-04T21:02:05.783Z,42.98
2022-12-04T21:04:32.201Z,43.19
2022-12-04T21:06:58.685Z,42.80
2022-12-04T21:09:25.142Z,43.56
2022-12-04T21:11:51.592Z,43.12
2022-12-04T21:14:17.964Z,43.02
2022-12-04T21:16:44.652Z,43.00
2022-12-04T21:19:11.163Z,43.73
2022-12-04T21:21:37.690Z,43.80
2022-12-04T21:24:04.197Z,43.57
2022-12-04T21:26:30.557Z,43.85
2022-12-04T21:28:56.967Z,44.07
2022-12-04T21:31:23.552Z,44.77
2022-12-04T21:33:49.982Z,44.89
2022-12-04T21:36:16.382Z,45.42
2022-12-04T21:38:42.804Z,45.33
2022-12-04T21:41:09.270Z,44.93
2022-12-04T21:43:35.757Z,44.74
2022-12-04T21:46:08.860Z,45.12
2022-12-04T21:48:35.554Z,45.17
2022-12-04T21:51:02.062Z,45.18
2022-12-04T21:53:28.494Z,44.93
2022-12-04T21:55:55.040Z,44.81
2022-12-04T21:58:21.424Z,44.82
2022-12-04T22:00:47.940Z,45.06
2022-12-04T22:03:14.407Z,44.97
2022-12-04T22:05:40.877Z,44.56
2022-12-04T22:08:07.375Z,45.00
2022-12-04T22:10:33.907Z,45.46
2022-12-04T22:13:00.294Z,44.99
2022-12-04T22:15:26.733Z,45.55
2022-12-04T22:17:53.150Z,45.28
2022-12-04T22:20:19.531Z,45.44
2022-12-04T22:22:45.970Z,45.05
2022-12-04T22:25:12.518Z,44.86
2022-12-04T22:27:38.915Z,44.81
2022-12-04T22:30:05.938Z,45.37
2022-12-04T22:32:32.579Z,45.37
2022-12-04T22:34:59.012Z,45.20
2022-12-04T22:37:25.437Z,45.14
2022-12-04T22:39:51.835Z,44.91
2022-12-04T22:42:18.250Z,44.76
2022-12-04T22:44:44.618Z,44.92
2022-12-04T22:47:11.159Z,44.98
2022-12-04T22:49:37.536Z,45.13
2022-12-04T22:52:03.914Z,45.19
2022-12-04T22:54:30.407Z,44.67
2022-12-04T22:56:56.814Z,45.16
2022-12-04T22:59:23.285Z,44.72
2022-12-04T23:01:49.723Z,44.88
2022-12-04T23:04:16.270Z,44.63
2022-12-04T23:06:42.660Z,44.62
2022-12-04T23:09:09.054Z,45.19
2022-12-04T23:11:35.580Z,44.96
2022-12-04T23:14:02.015Z,44.97
2022-12-04T23:16:28.445Z,44.59
2022-12-04T23:18:54.990Z,44.91
2022-12-04T23:21:21.408Z,45.33
2022-12-04T23:23:47.881Z,45.09
2022-12-04T23:26:14.324Z,44.90
2022-12-04T23:28:40.753Z,45.02
2022-12-04T23:31:07.224Z,44.45
2022-12-04T23:33:33.684Z,45.46
2022-12-04T23:36:00.284Z,45.24
2022-12-04T23:38:26.735Z,44.71
2022-12-04T23:40:53.161Z,44.74
2022-12-04T23:43:19.567Z,44.81
2022-12-04T23:45:45.990Z,44.56
2022-12-04T23:48:12.409Z,44.47
2022-12-04T23:50:38.827Z,44.63
2022-12-04T23:53:05.226Z,44.80
2022-12-04T23:55:34.491Z,44.72
2022-12-04T23:58:01.205Z,44.93
